createdAt,value
2022-08-01T00:01:18.106Z,1.90
2022-08-01T00:03:47.508Z,1.85
2022-08-01T00:06:15.545Z,1.90
2022-08-01T00:08:43.717Z,2.00
2022-08-01T00:11:11.826Z,1.98
2022-08-01T00:13:39.878Z,1.65
2022-08-01T00:16:07.929Z,1.90
2022-08-01T00:18:36.640Z,1.73
2022-08-01T00:21:06.565Z,1.95
2022-08-01T00:23:34.540Z,1.95
2022-08-01T00:26:02.708Z,1.67
2022-08-01T00:28:30.748Z,2.00
2022-08-01T00:30:58.696Z,2.25
2022-08-01T00:33:26.800Z,1.95
2022-08-01T00:35:54.927Z,2.20
2022-08-01T00:38:24.489Z,2.30
2022-08-01T00:40:54.737Z,2.60
2022-08-01T00:43:22.742Z,2.05
2022-08-01T00:45:50.942Z,2.25
2022-08-01T00:48:18.996Z,2.35
2022-08-01T00:50:47.525Z,2.00
2022-08-01T00:53:18.836Z,2.03
2022-08-01T00:55:49.690Z,2.28
2022-08-01T00:58:17.935Z,2.13
2022-08-01T01:00:53.646Z,2.30
2022-08-01T01:03:49.332Z,2.20
2022-08-01T01:06:29.093Z,2.25
2022-08-01T01:09:14.121Z,2.15
2022-08-01T01:11:51.085Z,2.28
2022-08-01T01:14:29.685Z,2.03
2022-08-01T01:17:00.679Z,2.13
2022-08-01T01:19:35.332Z,2.10
2022-08-01T01:22:19.021Z,2.10
2022-08-01T01:24:59.151Z,1.90
2022-08-01T01:27:44.820Z,2.33
2022-08-01T01:30:14.546Z,2.33
2022-08-01T01:32:47.299Z,2.30
2022-08-01T01:35:19.643Z,2.05
2022-08-01T01:37:49.905Z,2.00
2022-08-01T01:40:19.873Z,2.20
2022-08-01T01:42:49.588Z,2.30
2022-08-01T01:45:20.242Z,2.20
2022-08-01T01:47:48.701Z,2.40
2022-08-01T01:50:17.446Z,2.30
2022-08-01T01:52:48.010Z,2.05
2022-08-01T01:55:18.307Z,2.10
2022-08-01T01:57:47.732Z,2.17
2022-08-01T02:00:17.561Z,1.92
2022-08-01T02:02:48.085Z,2.25
2022-08-01T02:05:17.203Z,1.98
2022-08-01T02:07:46.859Z,2.08
2022-08-01T02:10:19.330Z,2.08
2022-08-01T02:12:51.030Z,2.10
2022-08-01T02:15:21.298Z,2.10
2022-08-01T02:17:53.650Z,2.00
2022-08-01T02:22:53.289Z,1.83
2022-08-01T02:25:25.949Z,2.00
2022-08-01T02:28:01.716Z,2.30
2022-08-01T02:30:34.754Z,2.20
2022-08-01T02:33:15.726Z,2.20
2022-08-01T02:36:29.144Z,2.05
2022-08-01T02:38:39.812Z,1.90
2022-08-01T02:41:10.662Z,2.60
2022-08-01T02:43:40.737Z,2.30
2022-08-01T02:46:13.378Z,2.38
2022-08-01T02:48:45.657Z,2.42
2022-08-01T02:51:17.032Z,2.22
2022-08-01T02:53:46.912Z,2.40
2022-08-01T02:56:16.026Z,2.80
2022-08-01T02:58:45.202Z,2.55
2022-08-01T03:01:15.683Z,2.50
2022-08-01T03:03:45.767Z,2.42
2022-08-01T03:06:15.319Z,2.63
2022-08-01T03:08:44.750Z,2.60
2022-08-01T03:11:14.747Z,2.63
2022-08-01T03:13:44.769Z,2.83
2022-08-01T03:16:15.486Z,2.58
2022-08-01T03:18:47.030Z,2.70
2022-08-01T03:21:16.337Z,2.70
2022-08-01T03:23:45.930Z,2.92
2022-08-01T03:26:14.242Z,2.83
2022-08-01T03:28:44.941Z,2.92
2022-08-01T03:31:16.150Z,3.10
2022-08-01T03:33:45.623Z,3.15
2022-08-01T03:36:16.148Z,3.47
2022-08-01T03:38:47.246Z,3.50
2022-08-01T03:41:22.002Z,3.90
2022-08-01T03:43:57.104Z,3.28
2022-08-01T03:46:32.178Z,3.88
2022-08-01T03:49:08.078Z,4.13
2022-08-01T03:51:36.580Z,4.38
2022-08-01T03:54:06.435Z,5.07
2022-08-01T03:56:35.753Z,4.50
2022-08-01T03:59:05.268Z,4.65
2022-08-01T04:01:34.544Z,4.53
2022-08-01T04:04:06.337Z,4.65
2022-08-01T04:06:34.408Z,4.40
2022-08-01T04:09:02.532Z,4.80
2022-08-01T04:11:30.541Z,4.82
2022-08-01T04:13:58.811Z,4.30
2022-08-01T04:16:26.973Z,4.80
2022-08-01T04:18:54.937Z,4.82
2022-08-01T04:21:28.720Z,4.97
2022-08-01T04:24:00.470Z,5.03
2022-08-01T04:26:30.580Z,5.00
2022-08-01T04:28:59.118Z,5.28
2022-08-01T04:31:30.057Z,5.13
2022-08-01T04:34:04.053Z,5.28
2022-08-01T04:36:35.572Z,5.82
2022-08-01T04:39:06.051Z,5.55
2022-08-01T04:41:36.850Z,5.28
2022-08-01T04:44:05.494Z,5.25
2022-08-01T04:46:35.743Z,5.30
2022-08-01T04:49:04.154Z,5.78
2022-08-01T04:51:33.611Z,6.05
2022-08-01T04:54:02.049Z,5.75
2022-08-01T04:56:30.035Z,6.15
2022-08-01T04:59:15.557Z,5.78
2022-08-01T05:01:51.653Z,5.93
2022-08-01T05:04:19.829Z,5.63
2022-08-01T05:06:49.179Z,6.15
2022-08-01T05:09:17.254Z,5.13
2022-08-01T05:11:45.291Z,5.82
2022-08-01T05:14:13.322Z,6.20
2022-08-01T05:16:42.797Z,6.25
2022-08-01T05:19:11.585Z,5.68
2022-08-01T05:21:39.983Z,5.47
2022-08-01T05:24:09.694Z,5.57
2022-08-01T05:26:38.004Z,6.05
2022-08-01T05:29:06.210Z,5.32
2022-08-01T05:31:35.889Z,5.32
2022-08-01T05:34:04.809Z,4.68
2022-08-01T05:36:32.787Z,5.35
2022-08-01T05:39:01.559Z,5.65
2022-08-01T05:41:30.983Z,5.18
2022-08-01T05:43:59.077Z,5.55
2022-08-01T05:46:27.575Z,5.05
2022-08-01T05:48:56.164Z,4.97
2022-08-01T05:51:24.177Z,4.88
2022-08-01T05:53:52.300Z,5.25
2022-08-01T05:56:20.869Z,4.95
2022-08-01T05:58:50.478Z,5.18
2022-08-01T06:01:18.856Z,4.72
2022-08-01T06:03:47.332Z,5.47
2022-08-01T06:06:15.991Z,5.43
2022-08-01T06:08:43.864Z,5.82
2022-08-01T06:11:14.750Z,5.70
2022-08-01T06:13:48.502Z,4.93
2022-08-01T06:16:23.036Z,4.57
2022-08-01T06:18:54.969Z,4.95
2022-08-01T06:21:24.426Z,4.93
2022-08-01T06:23:52.193Z,4.57
2022-08-01T06:26:20.317Z,3.60
2022-08-01T06:28:48.358Z,4.72
2022-08-01T06:31:16.627Z,4.75
2022-08-01T06:33:46.947Z,4.82
2022-08-01T06:36:15.087Z,5.32
2022-08-01T06:38:46.366Z,5.00
2022-08-01T06:41:23.854Z,5.13
2022-08-01T06:43:57.662Z,4.95
2022-08-01T06:46:30.530Z,5.68
2022-08-01T06:49:11.573Z,5.10
2022-08-01T06:51:40.601Z,4.93
2022-08-01T06:54:20.329Z,5.18
2022-08-01T06:56:51.297Z,4.65
2022-08-01T06:59:34.390Z,4.95
2022-08-01T07:05:16.904Z,4.35
2022-08-01T07:10:27.519Z,3.95
2022-08-01T07:13:09.781Z,3.72
2022-08-01T07:18:32.786Z,3.40
2022-08-01T07:22:34.118Z,4.20
2022-08-01T07:41:52.664Z,2.65
2022-08-01T07:48:13.643Z,2.45
2022-08-01T07:56:33.403Z,2.60
2022-08-01T07:59:05.779Z,2.78
2022-08-01T08:02:10.528Z,2.53
2022-08-01T08:04:53.467Z,2.60
2022-08-01T08:10:17.427Z,3.05
2022-08-01T08:13:10.616Z,2.97
2022-08-01T08:16:15.170Z,3.17
2022-08-01T08:20:09.580Z,3.60
2022-08-01T08:33:41.857Z,2.30
2022-08-01T08:36:12.461Z,2.53
2022-08-01T08:38:41.357Z,2.67
2022-08-01T08:41:10.329Z,2.55
2022-08-01T08:43:38.368Z,2.42
2022-08-01T08:46:09.940Z,2.38
2022-08-01T08:48:39.535Z,2.70
2022-08-01T08:51:09.673Z,2.40
2022-08-01T08:53:44.351Z,2.40
2022-08-01T08:56:15.048Z,2.00
2022-08-01T08:58:45.810Z,2.33
2022-08-01T09:01:14.518Z,2.28
2022-08-01T09:03:42.857Z,2.03
2022-08-01T09:06:11.142Z,2.00
2022-08-01T09:08:40.501Z,2.13
2022-08-01T09:11:08.570Z,2.00
2022-08-01T09:13:36.642Z,2.00
2022-08-01T09:16:19.278Z,2.05
2022-08-01T09:18:53.633Z,2.03
2022-08-01T09:21:25.240Z,1.83
2022-08-01T09:23:59.747Z,2.13
2022-08-01T09:26:31.942Z,2.10
2022-08-01T09:29:01.340Z,1.85
2022-08-01T09:31:38.557Z,1.80
2022-08-01T09:34:08.543Z,1.58
2022-08-01T09:36:54.351Z,1.83
2022-08-01T09:39:25.727Z,1.50
2022-08-01T09:41:55.037Z,1.60
2022-08-01T09:44:44.060Z,1.83
2022-08-01T09:47:15.523Z,1.80
2022-08-01T09:49:50.548Z,1.80
2022-08-01T09:52:25.922Z,1.70
2022-08-01T09:54:57.970Z,1.70
2022-08-01T09:57:26.261Z,1.67
2022-08-01T09:59:58.864Z,2.20
2022-08-01T10:02:31.324Z,1.90
2022-08-01T10:05:09.033Z,1.88
2022-08-01T10:07:43.841Z,1.92
2022-08-01T10:10:16.001Z,2.20
2022-08-01T10:12:45.835Z,2.08
2022-08-01T10:15:18.053Z,2.03
2022-08-01T10:17:57.537Z,1.90
2022-08-01T10:20:30.960Z,1.77
2022-08-01T10:23:06.058Z,1.90
2022-08-01T10:25:46.680Z,1.63
2022-08-01T10:28:21.506Z,1.80
2022-08-01T10:30:53.310Z,2.00
2022-08-01T10:33:52.664Z,1.50
2022-08-01T10:36:12.507Z,1.55
2022-08-01T10:38:42.368Z,1.70
2022-08-01T10:41:16.727Z,1.70
2022-08-01T10:43:46.871Z,1.65
2022-08-01T10:46:15.486Z,1.95
2022-08-01T10:48:52.163Z,1.38
2022-08-01T10:51:22.417Z,1.40
2022-08-01T10:54:11.775Z,1.48
2022-08-01T10:56:46.257Z,1.35
2022-08-01T10:59:50.312Z,1.30
2022-08-01T11:02:11.317Z,1.30
2022-08-01T11:04:56.084Z,1.23
2022-08-01T11:07:37.181Z,1.40
2022-08-01T11:10:14.839Z,1.20
2022-08-01T11:12:45.307Z,1.30
2022-08-01T11:15:30.219Z,1.20
2022-08-01T11:18:01.222Z,1.10
2022-08-01T11:20:32.483Z,1.10
2022-08-01T11:23:18.619Z,1.00
2022-08-01T11:26:10.339Z,1.10
2022-08-01T11:28:50.337Z,0.90
2022-08-01T11:31:30.329Z,1.23
2022-08-01T11:34:05.419Z,1.10
2022-08-01T11:36:57.538Z,1.02
2022-08-01T11:39:21.843Z,1.10
2022-08-01T11:41:50.460Z,1.20
2022-08-01T11:44:26.753Z,1.17
2022-08-01T11:47:08.611Z,1.10
2022-08-01T11:49:51.511Z,1.02
2022-08-01T11:52:21.841Z,1.00
2022-08-01T11:54:52.627Z,0.88
2022-08-01T11:57:23.585Z,0.80
2022-08-01T12:00:02.466Z,0.90
2022-08-01T12:02:40.553Z,1.10
2022-08-01T12:05:12.057Z,1.02
2022-08-01T12:07:42.848Z,0.95
2022-08-01T12:10:12.686Z,1.45
2022-08-01T12:12:46.111Z,1.10
2022-08-01T12:15:15.789Z,1.02
2022-08-01T12:17:58.668Z,1.02
2022-08-01T12:20:31.269Z,1.13
2022-08-01T12:23:01.425Z,1.17
2022-08-01T12:25:29.740Z,1.17
2022-08-01T12:28:02.188Z,1.10
2022-08-01T12:30:36.049Z,1.05
2022-08-01T12:33:06.143Z,1.20
2022-08-01T12:35:34.687Z,1.10
2022-08-01T12:38:05.291Z,1.00
2022-08-01T12:40:34.613Z,1.13
2022-08-01T12:43:04.482Z,1.10
2022-08-01T12:45:36.637Z,0.90
2022-08-01T12:48:10.108Z,0.98
2022-08-01T12:50:39.885Z,1.00
2022-08-01T12:53:08.924Z,1.00
2022-08-01T12:55:58.792Z,1.20
2022-08-01T12:58:33.805Z,1.20
2022-08-01T13:01:08.537Z,1.33
2022-08-01T13:03:36.697Z,1.02
2022-08-01T13:06:13.469Z,1.30
2022-08-01T13:08:41.607Z,0.95
2022-08-01T13:11:15.369Z,1.00
2022-08-01T13:13:48.327Z,1.00
2022-08-01T13:16:30.962Z,1.23
2022-08-01T13:19:07.866Z,1.13
2022-08-01T13:21:53.721Z,0.95
2022-08-01T13:24:27.930Z,1.00
2022-08-01T13:27:01.473Z,1.02
2022-08-01T13:29:34.416Z,1.17
2022-08-01T13:32:27.856Z,1.10
2022-08-01T13:35:03.968Z,0.95
2022-08-01T13:37:32.370Z,1.05
2022-08-01T13:40:00.531Z,1.00
2022-08-01T13:42:30.156Z,0.95
2022-08-01T13:44:58.223Z,1.00
2022-08-01T13:47:31.979Z,1.10
2022-08-01T13:50:03.935Z,1.20
2022-08-01T13:52:32.688Z,1.10
2022-08-01T13:55:00.947Z,1.40
2022-08-01T13:57:36.267Z,1.10
2022-08-01T14:00:07.389Z,1.00
2022-08-01T14:02:41.606Z,0.90
2022-08-01T14:05:09.870Z,1.17
2022-08-01T14:07:38.347Z,0.95
2022-08-01T14:10:20.002Z,0.90
2022-08-01T14:15:36.818Z,1.00
2022-08-01T14:18:06.886Z,1.15
2022-08-01T14:20:35.381Z,1.40
2022-08-01T14:23:03.356Z,1.20
2022-08-01T14:26:00.241Z,0.98
2022-08-01T14:28:19.701Z,1.10
2022-08-01T14:30:47.626Z,1.40
2022-08-01T14:33:17.095Z,1.30
2022-08-01T14:36:01.466Z,1.27
2022-08-01T14:38:34.340Z,1.17
2022-08-01T14:41:04.634Z,1.20
2022-08-01T14:43:34.169Z,1.50
2022-08-01T14:46:04.484Z,1.55
2022-08-01T14:48:34.170Z,1.30
2022-08-01T14:51:03.621Z,1.25
2022-08-01T14:53:34.231Z,1.00
2022-08-01T14:56:04.710Z,1.33
2022-08-01T14:58:32.712Z,1.50
2022-08-01T15:01:01.496Z,1.38
2022-08-01T15:03:29.721Z,1.40
2022-08-01T15:05:59.154Z,1.23
2022-08-01T15:08:27.437Z,1.40
2022-08-01T15:10:55.416Z,1.30
2022-08-01T15:13:23.383Z,1.80
2022-08-01T15:15:51.426Z,1.60
2022-08-01T15:18:19.395Z,1.40
2022-08-01T15:20:47.499Z,1.50
2022-08-01T15:23:16.881Z,1.50
2022-08-01T15:25:44.890Z,1.65
2022-08-01T15:28:13.452Z,1.60
2022-08-01T15:30:41.517Z,1.73
2022-08-01T15:33:09.679Z,1.80
2022-08-01T15:35:37.899Z,2.20
2022-08-01T15:38:05.885Z,1.90
2022-08-01T15:40:35.647Z,1.70
2022-08-01T15:43:04.574Z,2.10
2022-08-01T15:45:48.851Z,1.80
2022-08-01T15:48:17.584Z,1.60
2022-08-01T15:50:45.998Z,1.70
2022-08-01T15:53:14.173Z,1.77
2022-08-01T15:55:46.622Z,1.70
2022-08-01T15:58:21.049Z,1.55
2022-08-01T16:00:49.057Z,1.95
2022-08-01T16:03:17.054Z,1.52
2022-08-01T16:05:45.151Z,1.73
2022-08-01T16:08:13.836Z,1.70
2022-08-01T16:10:43.713Z,1.80
2022-08-01T16:13:12.934Z,1.55
2022-08-01T16:15:41.744Z,1.60
2022-08-01T16:18:13.030Z,1.40
2022-08-01T16:20:45.541Z,1.73
2022-08-01T16:23:14.665Z,1.70
2022-08-01T16:25:44.975Z,1.50
2022-08-01T16:28:14.080Z,1.30
2022-08-01T16:30:48.585Z,1.33
2022-08-01T16:33:45.843Z,1.23
2022-08-01T16:36:17.499Z,1.25
2022-08-01T16:38:45.706Z,1.20
2022-08-01T16:41:19.002Z,1.20
2022-08-01T16:43:53.732Z,1.30
2022-08-01T16:46:22.474Z,1.20
2022-08-01T16:48:50.586Z,1.00
2022-08-01T16:51:19.909Z,1.20
2022-08-01T16:53:47.934Z,0.95
2022-08-01T16:56:17.540Z,1.00
2022-08-01T16:58:45.948Z,0.95
2022-08-01T17:01:58.085Z,1.17
2022-08-01T17:04:02.416Z,1.30
2022-08-01T17:06:30.955Z,1.25
2022-08-01T17:08:59.316Z,0.80
2022-08-01T17:11:28.704Z,1.20
2022-08-01T17:13:56.877Z,1.10
2022-08-01T17:16:24.942Z,1.13
2022-08-01T17:18:53.293Z,0.85
2022-08-01T17:21:21.281Z,1.10
2022-08-01T17:23:49.366Z,1.00
2022-08-01T17:26:17.363Z,1.02
2022-08-01T17:28:46.802Z,1.00
2022-08-01T17:31:14.838Z,0.98
2022-08-01T17:33:45.386Z,0.82
2022-08-01T17:36:15.293Z,1.02
2022-08-01T17:38:43.295Z,1.10
2022-08-01T17:41:11.384Z,1.00
2022-08-01T17:43:39.320Z,1.02
2022-08-01T17:46:09.535Z,1.00
2022-08-01T17:48:37.624Z,1.17
2022-08-01T17:51:06.446Z,0.98
2022-08-01T17:53:34.862Z,0.90
2022-08-01T17:56:05.798Z,0.90
2022-08-01T17:58:51.904Z,0.90
2022-08-01T18:01:26.846Z,1.30
2022-08-01T18:03:57.607Z,1.05
2022-08-01T18:06:27.273Z,0.98
2022-08-01T18:08:59.365Z,1.55
2022-08-01T18:11:27.903Z,1.20
2022-08-01T18:13:57.011Z,0.98
2022-08-01T18:16:29.092Z,1.00
2022-08-01T18:18:57.750Z,1.25
2022-08-01T18:21:25.895Z,1.00
2022-08-01T18:23:53.915Z,1.10
2022-08-01T18:26:22.432Z,1.30
2022-08-01T18:28:50.971Z,1.10
2022-08-01T18:31:20.771Z,1.20
2022-08-01T18:33:50.296Z,1.17
2022-08-01T18:36:33.201Z,1.10
2022-08-01T18:39:04.547Z,1.15
2022-08-01T18:41:33.114Z,1.00
2022-08-01T18:44:05.560Z,1.20
2022-08-01T18:46:37.617Z,1.15
2022-08-01T18:49:10.222Z,1.05
2022-08-01T18:51:43.737Z,1.08
2022-08-01T18:54:15.495Z,1.00
2022-08-01T18:56:44.445Z,1.30
2022-08-01T18:59:13.281Z,1.30
2022-08-01T19:01:41.459Z,1.02
2022-08-01T19:04:11.103Z,1.10
2022-08-01T19:06:40.363Z,1.13
2022-08-01T19:09:09.248Z,1.00
2022-08-01T19:11:38.229Z,1.20
2022-08-01T19:14:06.497Z,1.17
2022-08-01T19:16:35.095Z,1.40
2022-08-01T19:19:07.054Z,1.40
2022-08-01T19:24:22.965Z,1.20
2022-08-01T19:26:53.517Z,1.30
2022-08-01T19:29:23.866Z,1.50
2022-08-01T19:32:01.364Z,1.40
2022-08-01T19:34:31.058Z,1.42
2022-08-01T19:37:00.480Z,1.45
2022-08-01T19:39:28.873Z,1.33
2022-08-01T19:41:59.482Z,1.83
2022-08-01T19:44:29.685Z,1.30
2022-08-01T19:46:57.809Z,1.30
2022-08-01T19:49:26.284Z,1.35
2022-08-01T19:51:56.890Z,1.25
2022-08-01T19:54:30.209Z,1.33
2022-08-01T19:57:01.818Z,1.67
2022-08-01T19:59:33.192Z,1.60
2022-08-01T20:02:01.440Z,1.47
2022-08-01T20:04:29.945Z,1.48
2022-08-01T20:06:58.089Z,1.30
2022-08-01T20:09:28.698Z,1.55
2022-08-01T20:11:56.922Z,1.27
2022-08-01T20:14:26.605Z,1.60
2022-08-01T20:16:56.343Z,1.45
2022-08-01T20:19:25.722Z,1.15
2022-08-01T20:22:02.629Z,1.40
2022-08-01T20:24:40.948Z,1.50
2022-08-01T20:27:11.355Z,1.55
2022-08-01T20:29:40.251Z,1.45
2022-08-01T20:32:09.532Z,1.58
2022-08-01T20:34:40.670Z,1.40
2022-08-01T20:37:13.140Z,1.50
2022-08-01T20:39:45.101Z,1.23
2022-08-01T20:42:14.654Z,1.17
2022-08-01T20:44:43.373Z,1.23
2022-08-01T20:47:11.961Z,1.48
2022-08-01T20:49:43.385Z,1.80
2022-08-01T20:52:13.625Z,1.50
2022-08-01T20:54:45.220Z,1.48
2022-08-01T20:57:20.463Z,2.08
2022-08-01T20:59:56.847Z,1.77
2022-08-01T21:02:42.578Z,1.52
2022-08-01T21:05:12.141Z,1.65
2022-08-01T21:07:44.242Z,1.65
2022-08-01T21:10:16.125Z,1.50
2022-08-01T21:12:47.394Z,1.60
2022-08-01T21:15:25.671Z,1.58
2022-08-01T21:17:58.992Z,1.70
2022-08-01T21:20:29.846Z,1.60
2022-08-01T21:23:09.769Z,1.40
2022-08-01T21:25:39.334Z,1.70
2022-08-01T21:28:07.428Z,1.55
2022-08-01T21:30:37.119Z,1.90
2022-08-01T21:33:06.281Z,1.60
2022-08-01T21:35:35.832Z,1.55
2022-08-01T21:38:04.583Z,1.70
2022-08-01T21:40:34.287Z,1.80
2022-08-01T21:43:04.822Z,1.60
2022-08-01T21:45:32.894Z,1.80
2022-08-01T21:48:02.068Z,1.63
2022-08-01T21:50:40.141Z,1.80
2022-08-01T21:53:17.335Z,1.52
2022-08-01T21:56:15.080Z,1.90
2022-08-01T21:58:52.777Z,1.90
2022-08-01T22:01:28.282Z,1.70
2022-08-01T22:04:00.606Z,1.90
2022-08-01T22:09:01.367Z,1.90
2022-08-01T22:11:31.360Z,1.95
2022-08-01T22:14:04.966Z,2.03
2022-08-01T22:16:34.638Z,1.65
2022-08-01T22:19:04.334Z,1.92
2022-08-01T22:21:34.200Z,1.90
2022-08-01T22:24:05.099Z,1.92
2022-08-01T22:26:34.622Z,1.90
2022-08-01T22:29:06.052Z,1.83
2022-08-01T22:31:37.942Z,2.00
2022-08-01T22:34:07.004Z,1.88
2022-08-01T22:36:35.022Z,2.08
2022-08-01T22:39:03.087Z,1.90
2022-08-01T22:42:01.373Z,1.90
2022-08-01T22:44:30.592Z,1.80
2022-08-01T22:47:04.377Z,1.80
2022-08-01T22:49:36.138Z,2.20
2022-08-01T22:52:12.958Z,1.95
2022-08-01T22:54:42.713Z,1.77
2022-08-01T22:57:15.650Z,1.70
2022-08-01T22:59:49.782Z,2.30
2022-08-01T23:02:19.758Z,2.30
2022-08-01T23:04:49.690Z,2.15
2022-08-01T23:07:21.379Z,2.30
2022-08-01T23:09:54.180Z,2.30
2022-08-01T23:12:24.407Z,2.00
2022-08-01T23:14:55.635Z,2.30
2022-08-01T23:17:26.286Z,2.20
2022-08-01T23:19:58.460Z,2.25
2022-08-01T23:22:29.484Z,2.10
2022-08-01T23:25:05.180Z,2.03
2022-08-01T23:27:51.435Z,1.98
2022-08-01T23:30:27.634Z,2.20
2022-08-01T23:32:55.798Z,2.05
2022-08-01T23:35:24.288Z,2.03
2022-08-01T23:37:53.643Z,2.22
2022-08-01T23:40:24.721Z,1.77
2022-08-01T23:42:54.669Z,2.45
2022-08-01T23:45:23.271Z,2.33
2022-08-01T23:47:53.395Z,2.30
2022-08-01T23:50:22.525Z,2.38
2022-08-01T23:52:51.446Z,2.30
2022-08-01T23:58:01.005Z,2.20
